sensor_id;sensor_type;location;lat;lon;timestamp;temperature;humidity
11426;DHT22;5769;47.998;7.788;2023-06-19T00:01:39;21.10;79.70
11426;DHT22;5769;47.998;7.788;2023-06-19T00:04:06;21.00;79.60
11426;DHT22;5769;47.998;7.788;2023-06-19T00:06:33;21.00;79.60
11426;DHT22;5769;47.998;7.788;2023-06-19T00:08:59;21.00;79.60
11426;DHT22;5769;47.998;7.788;2023-06-19T00:11:27;21.00;79.60
11426;DHT22;5769;47.998;7.788;2023-06-19T00:13:54;21.00;79.60
11426;DHT22;5769;47.998;7.788;2023-06-19T00:16:21;21.00;79.60
11426;DHT22;5769;47.998;7.788;2023-06-19T00:18:50;21.00;80.30
11426;DHT22;5769;47.998;7.788;2023-06-19T00:21:21;21.00;79.60
11426;DHT22;5769;47.998;7.788;2023-06-19T00:23:49;21.00;79.60
11426;DHT22;5769;47.998;7.788;2023-06-19T00:26:16;21.00;79.60
11426;DHT22;5769;47.998;7.788;2023-06-19T00:28:44;21.00;79.60
11426;DHT22;5769;47.998;7.788;2023-06-19T00:31:14;21.00;79.60
11426;DHT22;5769;47.998;7.788;2023-06-19T00:33:41;21.00;79.60
11426;DHT22;5769;47.998;7.788;2023-06-19T00:36:09;21.00;79.60
11426;DHT22;5769;47.998;7.788;2023-06-19T00:38:36;21.00;79.60
11426;DHT22;5769;47.998;7.788;2023-06-19T00:41:03;21.00;79.60
11426;DHT22;5769;47.998;7.788;2023-06-19T00:43:30;21.00;79.60
11426;DHT22;5769;47.998;7.788;2023-06-19T00:45:59;21.00;79.60
11426;DHT22;5769;47.998;7.788;2023-06-19T00:48:27;21.00;79.50
11426;DHT22;5769;47.998;7.788;2023-06-19T00:50:54;21.00;79.50
11426;DHT22;5769;47.998;7.788;2023-06-19T00:53:22;21.10;79.60
11426;DHT22;5769;47.998;7.788;2023-06-19T00:55:51;21.00;79.50
11426;DHT22;5769;47.998;7.788;2023-06-19T00:58:18;21.00;79.50
11426;DHT22;5769;47.998;7.788;2023-06-19T01:00:45;21.00;79.50
11426;DHT22;5769;47.998;7.788;2023-06-19T01:03:13;21.00;79.50
11426;DHT22;5769;47.998;7.788;2023-06-19T01:05:40;21.00;79.50
11426;DHT22;5769;47.998;7.788;2023-06-19T01:08:10;21.00;79.50
11426;DHT22;5769;47.998;7.788;2023-06-19T01:10:51;21.00;79.50
11426;DHT22;5769;47.998;7.788;2023-06-19T01:13:24;21.00;79.50
11426;DHT22;5769;47.998;7.788;2023-06-19T01:15:54;21.00;79.50
11426;DHT22;5769;47.998;7.788;2023-06-19T01:18:22;21.00;79.50
11426;DHT22;5769;47.998;7.788;2023-06-19T01:20:50;21.10;79.60
11426;DHT22;5769;47.998;7.788;2023-06-19T01:23:18;21.00;79.50
11426;DHT22;5769;47.998;7.788;2023-06-19T01:25:45;21.00;79.60
11426;DHT22;5769;47.998;7.788;2023-06-19T01:28:12;21.00;79.50
11426;DHT22;5769;47.998;7.788;2023-06-19T01:30:41;21.00;79.60
11426;DHT22;5769;47.998;7.788;2023-06-19T01:33:11;21.00;79.60
11426;DHT22;5769;47.998;7.788;2023-06-19T01:35:42;21.00;79.60
11426;DHT22;5769;47.998;7.788;2023-06-19T01:38:10;21.00;79.60
11426;DHT22;5769;47.998;7.788;2023-06-19T01:40:40;21.00;79.60
11426;DHT22;5769;47.998;7.788;2023-06-19T01:43:08;21.00;79.60
11426;DHT22;5769;47.998;7.788;2023-06-19T01:45:36;21.00;79.60
11426;DHT22;5769;47.998;7.788;2023-06-19T01:48:03;21.00;79.60
11426;DHT22;5769;47.998;7.788;2023-06-19T01:50:30;21.00;79.60
11426;DHT22;5769;47.998;7.788;2023-06-19T01:52:57;21.00;79.60
11426;DHT22;5769;47.998;7.788;2023-06-19T01:55:24;21.00;79.60
11426;DHT22;5769;47.998;7.788;2023-06-19T01:57:52;21.00;79.70
11426;DHT22;5769;47.998;7.788;2023-06-19T02:00:19;21.00;79.70
11426;DHT22;5769;47.998;7.788;2023-06-19T02:02:45;21.00;80.40
11426;DHT22;5769;47.998;7.788;2023-06-19T02:05:12;21.00;79.70
11426;DHT22;5769;47.998;7.788;2023-06-19T02:07:40;21.00;79.70
11426;DHT22;5769;47.998;7.788;2023-06-19T02:10:08;21.00;79.70
11426;DHT22;5769;47.998;7.788;2023-06-19T02:12:34;21.00;79.70
11426;DHT22;5769;47.998;7.788;2023-06-19T02:15:03;21.00;79.70
11426;DHT22;5769;47.998;7.788;2023-06-19T02:17:30;21.00;79.70
11426;DHT22;5769;47.998;7.788;2023-06-19T02:19:56;21.00;79.80
11426;DHT22;5769;47.998;7.788;2023-06-19T02:22:23;21.00;79.80
11426;DHT22;5769;47.998;7.788;2023-06-19T02:24:50;21.00;79.80
11426;DHT22;5769;47.998;7.788;2023-06-19T02:27:17;21.10;79.80
11426;DHT22;5769;47.998;7.788;2023-06-19T02:29:43;21.00;79.80
11426;DHT22;5769;47.998;7.788;2023-06-19T02:32:11;21.00;79.80
11426;DHT22;5769;47.998;7.788;2023-06-19T02:34:38;21.00;79.80
11426;DHT22;5769;47.998;7.788;2023-06-19T02:37:05;21.00;79.80
11426;DHT22;5769;47.998;7.788;2023-06-19T02:39:33;21.00;79.80
11426;DHT22;5769;47.998;7.788;2023-06-19T02:42:00;21.00;79.80
11426;DHT22;5769;47.998;7.788;2023-06-19T02:44:26;21.00;79.80
11426;DHT22;5769;47.998;7.788;2023-06-19T02:46:53;21.00;79.80
11426;DHT22;5769;47.998;7.788;2023-06-19T02:49:21;21.00;79.80
11426;DHT22;5769;47.998;7.788;2023-06-19T02:51:48;21.00;79.90
11426;DHT22;5769;47.998;7.788;2023-06-19T02:54:14;21.00;79.90
11426;DHT22;5769;47.998;7.788;2023-06-19T02:56:41;21.00;79.90
11426;DHT22;5769;47.998;7.788;2023-06-19T02:59:08;21.00;79.90
11426;DHT22;5769;47.998;7.788;2023-06-19T03:01:34;21.00;79.90
11426;DHT22;5769;47.998;7.788;2023-06-19T03:04:01;21.00;79.90
11426;DHT22;5769;47.998;7.788;2023-06-19T03:06:29;21.00;79.90
11426;DHT22;5769;47.998;7.788;2023-06-19T03:08:56;21.00;79.90
11426;DHT22;5769;47.998;7.788;2023-06-19T03:11:22;21.00;79.90
11426;DHT22;5769;47.998;7.788;2023-06-19T03:13:51;21.00;79.90
11426;DHT22;5769;47.998;7.788;2023-06-19T03:16:18;21.10;80.00
11426;DHT22;5769;47.998;7.788;2023-06-19T03:18:45;21.00;79.90
11426;DHT22;5769;47.998;7.788;2023-06-19T03:21:12;21.10;80.00
11426;DHT22;5769;47.998;7.788;2023-06-19T03:23:40;21.00;80.00
11426;DHT22;5769;47.998;7.788;2023-06-19T03:26:07;21.00;80.00
11426;DHT22;5769;47.998;7.788;2023-06-19T03:28:34;21.00;80.00
11426;DHT22;5769;47.998;7.788;2023-06-19T03:31:00;21.00;80.00
11426;DHT22;5769;47.998;7.788;2023-06-19T03:33:27;21.00;80.00
11426;DHT22;5769;47.998;7.788;2023-06-19T03:35:54;21.00;80.00
11426;DHT22;5769;47.998;7.788;2023-06-19T03:38:21;21.00;80.00
11426;DHT22;5769;47.998;7.788;2023-06-19T03:40:49;21.00;80.00
11426;DHT22;5769;47.998;7.788;2023-06-19T03:43:16;21.00;80.00
11426;DHT22;5769;47.998;7.788;2023-06-19T03:45:42;21.00;80.00
11426;DHT22;5769;47.998;7.788;2023-06-19T03:48:09;21.00;80.10
11426;DHT22;5769;47.998;7.788;2023-06-19T03:50:35;21.00;80.00
11426;DHT22;5769;47.998;7.788;2023-06-19T03:53:02;21.00;80.10
11426;DHT22;5769;47.998;7.788;2023-06-19T03:55:29;21.00;80.10
11426;DHT22;5769;47.998;7.788;2023-06-19T03:57:57;21.00;80.10
11426;DHT22;5769;47.998;7.788;2023-06-19T04:00:23;21.00;80.10
11426;DHT22;5769;47.998;7.788;2023-06-19T04:02:50;21.00;80.10
11426;DHT22;5769;47.998;7.788;2023-06-19T04:05:17;21.00;80.10
11426;DHT22;5769;47.998;7.788;2023-06-19T04:07:45;21.00;80.10
11426;DHT22;5769;47.998;7.788;2023-06-19T04:10:11;21.00;80.10
11426;DHT22;5769;47.998;7.788;2023-06-19T04:12:38;21.00;80.10
11426;DHT22;5769;47.998;7.788;2023-06-19T04:15:08;21.00;80.10
11426;DHT22;5769;47.998;7.788;2023-06-19T04:17:35;21.00;80.10
11426;DHT22;5769;47.998;7.788;2023-06-19T04:20:02;21.00;80.10
11426;DHT22;5769;47.998;7.788;2023-06-19T04:22:32;21.00;80.10
11426;DHT22;5769;47.998;7.788;2023-06-19T04:24:59;21.00;80.10
11426;DHT22;5769;47.998;7.788;2023-06-19T04:27:25;21.00;80.10
11426;DHT22;5769;47.998;7.788;2023-06-19T04:29:52;21.00;80.10
11426;DHT22;5769;47.998;7.788;2023-06-19T04:32:20;21.00;80.10
11426;DHT22;5769;47.998;7.788;2023-06-19T04:34:47;21.00;80.10
11426;DHT22;5769;47.998;7.788;2023-06-19T04:37:14;21.10;80.20
11426;DHT22;5769;47.998;7.788;2023-06-19T04:39:44;21.00;80.20
11426;DHT22;5769;47.998;7.788;2023-06-19T04:42:13;21.00;80.20
11426;DHT22;5769;47.998;7.788;2023-06-19T04:44:44;21.10;80.30
11426;DHT22;5769;47.998;7.788;2023-06-19T04:47:11;21.10;80.30
11426;DHT22;5769;47.998;7.788;2023-06-19T04:49:39;21.10;80.30
11426;DHT22;5769;47.998;7.788;2023-06-19T04:52:06;21.10;80.30
11426;DHT22;5769;47.998;7.788;2023-06-19T04:54:33;21.00;80.30
11426;DHT22;5769;47.998;7.788;2023-06-19T04:57:00;21.10;80.30
11426;DHT22;5769;47.998;7.788;2023-06-19T04:59:27;21.00;80.30
11426;DHT22;5769;47.998;7.788;2023-06-19T05:01:55;21.00;80.30
11426;DHT22;5769;47.998;7.788;2023-06-19T05:04:22;21.10;80.30
11426;DHT22;5769;47.998;7.788;2023-06-19T05:06:50;21.10;80.30
11426;DHT22;5769;47.998;7.788;2023-06-19T05:09:17;21.10;80.30
11426;DHT22;5769;47.998;7.788;2023-06-19T05:11:43;21.10;80.40
11426;DHT22;5769;47.998;7.788;2023-06-19T05:14:10;21.10;80.40
11426;DHT22;5769;47.998;7.788;2023-06-19T05:16:39;21.10;80.40
11426;DHT22;5769;47.998;7.788;2023-06-19T05:19:06;21.00;80.30
11426;DHT22;5769;47.998;7.788;2023-06-19T05:21:33;21.10;80.40
11426;DHT22;5769;47.998;7.788;2023-06-19T05:24:01;21.10;80.40
11426;DHT22;5769;47.998;7.788;2023-06-19T05:26:27;21.00;81.00
11426;DHT22;5769;47.998;7.788;2023-06-19T05:28:54;21.10;80.40
11426;DHT22;5769;47.998;7.788;2023-06-19T05:31:21;21.10;80.40
11426;DHT22;5769;47.998;7.788;2023-06-19T05:33:47;21.10;81.10
11426;DHT22;5769;47.998;7.788;2023-06-19T05:36:14;21.10;80.40
11426;DHT22;5769;47.998;7.788;2023-06-19T05:38:41;21.10;80.30
11426;DHT22;5769;47.998;7.788;2023-06-19T05:41:09;21.10;80.30
11426;DHT22;5769;47.998;7.788;2023-06-19T05:43:36;21.10;80.30
11426;DHT22;5769;47.998;7.788;2023-06-19T05:46:02;21.10;80.40
11426;DHT22;5769;47.998;7.788;2023-06-19T05:48:29;21.10;80.30
11426;DHT22;5769;47.998;7.788;2023-06-19T05:50:56;21.10;80.40
11426;DHT22;5769;47.998;7.788;2023-06-19T05:53:23;21.00;80.30
11426;DHT22;5769;47.998;7.788;2023-06-19T05:55:49;21.10;80.30
11426;DHT22;5769;47.998;7.788;2023-06-19T05:58:17;21.10;80.30
11426;DHT22;5769;47.998;7.788;2023-06-19T06:00:45;21.10;80.30
11426;DHT22;5769;47.998;7.788;2023-06-19T06:03:12;21.10;80.30
11426;DHT22;5769;47.998;7.788;2023-06-19T06:05:41;21.10;80.30
11426;DHT22;5769;47.998;7.788;2023-06-19T06:08:08;21.10;80.40
11426;DHT22;5769;47.998;7.788;2023-06-19T06:10:35;21.10;80.40
11426;DHT22;5769;47.998;7.788;2023-06-19T06:13:02;21.10;80.40
11426;DHT22;5769;47.998;7.788;2023-06-19T06:15:30;21.10;80.40
11426;DHT22;5769;47.998;7.788;2023-06-19T06:17:56;21.10;80.40
11426;DHT22;5769;47.998;7.788;2023-06-19T06:20:23;21.10;80.30
11426;DHT22;5769;47.998;7.788;2023-06-19T06:22:50;21.10;80.30
11426;DHT22;5769;47.998;7.788;2023-06-19T06:25:16;21.10;80.30
11426;DHT22;5769;47.998;7.788;2023-06-19T06:27:43;21.10;80.30
11426;DHT22;5769;47.998;7.788;2023-06-19T06:30:11;21.10;80.30
11426;DHT22;5769;47.998;7.788;2023-06-19T06:32:39;21.10;80.30
11426;DHT22;5769;47.998;7.788;2023-06-19T06:35:07;21.10;80.40
11426;DHT22;5769;47.998;7.788;2023-06-19T06:37:33;21.10;80.30
11426;DHT22;5769;47.998;7.788;2023-06-19T06:40:00;21.10;80.30
11426;DHT22;5769;47.998;7.788;2023-06-19T06:42:28;21.10;80.30
11426;DHT22;5769;47.998;7.788;2023-06-19T06:44:55;21.10;80.30
11426;DHT22;5769;47.998;7.788;2023-06-19T06:47:21;21.10;80.40
11426;DHT22;5769;47.998;7.788;2023-06-19T06:49:49;21.10;80.40
11426;DHT22;5769;47.998;7.788;2023-06-19T06:52:16;21.10;80.40
11426;DHT22;5769;47.998;7.788;2023-06-19T06:54:43;21.10;80.50
11426;DHT22;5769;47.998;7.788;2023-06-19T06:57:10;21.10;80.40
11426;DHT22;5769;47.998;7.788;2023-06-19T06:59:37;21.10;80.50
11426;DHT22;5769;47.998;7.788;2023-06-19T07:02:04;21.10;80.50
11426;DHT22;5769;47.998;7.788;2023-06-19T07:04:30;21.10;80.40
11426;DHT22;5769;47.998;7.788;2023-06-19T07:06:59;21.10;80.40
11426;DHT22;5769;47.998;7.788;2023-06-19T07:09:25;21.10;80.40
11426;DHT22;5769;47.998;7.788;2023-06-19T07:11:52;21.10;80.40
11426;DHT22;5769;47.998;7.788;2023-06-19T07:14:19;21.10;80.40
11426;DHT22;5769;47.998;7.788;2023-06-19T07:16:45;21.10;80.40
11426;DHT22;5769;47.998;7.788;2023-06-19T07:19:12;21.10;80.40
11426;DHT22;5769;47.998;7.788;2023-06-19T07:21:39;21.10;80.40
11426;DHT22;5769;47.998;7.788;2023-06-19T07:24:08;21.10;80.40
11426;DHT22;5769;47.998;7.788;2023-06-19T07:26:35;21.10;80.40
11426;DHT22;5769;47.998;7.788;2023-06-19T07:29:02;21.10;80.40
11426;DHT22;5769;47.998;7.788;2023-06-19T07:31:28;21.10;80.40
11426;DHT22;5769;47.998;7.788;2023-06-19T07:33:55;21.10;80.40
11426;DHT22;5769;47.998;7.788;2023-06-19T07:36:22;21.10;80.40
11426;DHT22;5769;47.998;7.788;2023-06-19T07:38:48;21.10;80.30
11426;DHT22;5769;47.998;7.788;2023-06-19T07:41:16;21.10;80.40
11426;DHT22;5769;47.998;7.788;2023-06-19T07:43:43;21.10;80.40
11426;DHT22;5769;47.998;7.788;2023-06-19T07:46:10;21.10;80.30
11426;DHT22;5769;47.998;7.788;2023-06-19T07:48:37;21.10;80.40
11426;DHT22;5769;47.998;7.788;2023-06-19T07:51:03;21.10;80.40
11426;DHT22;5769;47.998;7.788;2023-06-19T07:53:30;21.10;80.40
11426;DHT22;5769;47.998;7.788;2023-06-19T07:55:56;21.10;80.30
11426;DHT22;5769;47.998;7.788;2023-06-19T07:58:24;21.10;80.40
11426;DHT22;5769;47.998;7.788;2023-06-19T08:00:51;21.10;80.30
11426;DHT22;5769;47.998;7.788;2023-06-19T08:03:18;21.10;80.40
11426;DHT22;5769;47.998;7.788;2023-06-19T08:05:45;21.10;80.30
11426;DHT22;5769;47.998;7.788;2023-06-19T08:08:12;21.10;80.30
11426;DHT22;5769;47.998;7.788;2023-06-19T08:10:39;21.10;80.30
11426;DHT22;5769;47.998;7.788;2023-06-19T08:13:06;21.10;80.30
11426;DHT22;5769;47.998;7.788;2023-06-19T08:15:34;21.10;80.30
11426;DHT22;5769;47.998;7.788;2023-06-19T08:18:01;21.10;80.20
11426;DHT22;5769;47.998;7.788;2023-06-19T08:20:27;21.10;80.40
11426;DHT22;5769;47.998;7.788;2023-06-19T08:22:54;21.10;80.50
11426;DHT22;5769;47.998;7.788;2023-06-19T08:25:21;21.10;80.50
11426;DHT22;5769;47.998;7.788;2023-06-19T08:27:48;21.10;80.50
11426;DHT22;5769;47.998;7.788;2023-06-19T08:30:15;21.10;80.60
11426;DHT22;5769;47.998;7.788;2023-06-19T08:32:45;21.10;80.60
11426;DHT22;5769;47.998;7.788;2023-06-19T08:35:13;21.10;80.60
11426;DHT22;5769;47.998;7.788;2023-06-19T08:37:40;21.10;80.60
11426;DHT22;5769;47.998;7.788;2023-06-19T08:40:08;21.10;80.60
11426;DHT22;5769;47.998;7.788;2023-06-19T08:42:35;21.10;80.60
11426;DHT22;5769;47.998;7.788;2023-06-19T08:45:02;21.10;80.60
11426;DHT22;5769;47.998;7.788;2023-06-19T08:47:29;21.10;80.60
11426;DHT22;5769;47.998;7.788;2023-06-19T08:49:58;21.10;80.60
11426;DHT22;5769;47.998;7.788;2023-06-19T08:52:25;21.10;80.60
11426;DHT22;5769;47.998;7.788;2023-06-19T08:54:51;21.10;80.70
11426;DHT22;5769;47.998;7.788;2023-06-19T08:57:18;21.10;80.60
11426;DHT22;5769;47.998;7.788;2023-06-19T08:59:48;21.00;80.50
11426;DHT22;5769;47.998;7.788;2023-06-19T09:02:15;21.10;80.60
11426;DHT22;5769;47.998;7.788;2023-06-19T09:04:42;21.10;80.60
11426;DHT22;5769;47.998;7.788;2023-06-19T09:07:12;21.10;80.60
11426;DHT22;5769;47.998;7.788;2023-06-19T09:09:44;21.10;80.60
11426;DHT22;5769;47.998;7.788;2023-06-19T09:12:13;21.10;80.60
11426;DHT22;5769;47.998;7.788;2023-06-19T09:14:42;21.10;80.60
11426;DHT22;5769;47.998;7.788;2023-06-19T09:17:11;21.10;80.60
11426;DHT22;5769;47.998;7.788;2023-06-19T09:19:38;21.10;80.60
11426;DHT22;5769;47.998;7.788;2023-06-19T09:22:16;21.10;80.50
11426;DHT22;5769;47.998;7.788;2023-06-19T09:24:44;21.10;80.50
11426;DHT22;5769;47.998;7.788;2023-06-19T09:27:13;21.10;80.60
11426;DHT22;5769;47.998;7.788;2023-06-19T09:29:40;21.10;80.50
11426;DHT22;5769;47.998;7.788;2023-06-19T09:32:17;21.10;81.20
11426;DHT22;5769;47.998;7.788;2023-06-19T09:34:44;21.10;80.50
11426;DHT22;5769;47.998;7.788;2023-06-19T09:37:11;21.10;80.50
11426;DHT22;5769;47.998;7.788;2023-06-19T09:39:39;21.00;80.50
11426;DHT22;5769;47.998;7.788;2023-06-19T09:42:07;21.00;80.50
11426;DHT22;5769;47.998;7.788;2023-06-19T09:44:39;21.00;80.40
11426;DHT22;5769;47.998;7.788;2023-06-19T09:47:14;21.10;80.50
11426;DHT22;5769;47.998;7.788;2023-06-19T09:49:48;21.00;80.50
11426;DHT22;5769;47.998;7.788;2023-06-19T09:52:16;21.10;80.50
11426;DHT22;5769;47.998;7.788;2023-06-19T09:54:46;21.10;80.50
11426;DHT22;5769;47.998;7.788;2023-06-19T09:57:13;21.10;80.50
11426;DHT22;5769;47.998;7.788;2023-06-19T09:59:41;21.00;80.40
11426;DHT22;5769;47.998;7.788;2023-06-19T10:02:09;21.10;80.50
11426;DHT22;5769;47.998;7.788;2023-06-19T10:04:44;21.10;80.50
11426;DHT22;5769;47.998;7.788;2023-06-19T10:07:18;21.10;80.50
11426;DHT22;5769;47.998;7.788;2023-06-19T10:09:58;21.10;80.50
11426;DHT22;5769;47.998;7.788;2023-06-19T10:12:35;21.10;80.50
11426;DHT22;5769;47.998;7.788;2023-06-19T10:15:13;21.10;80.50
11426;DHT22;5769;47.998;7.788;2023-06-19T10:17:46;21.00;80.40
11426;DHT22;5769;47.998;7.788;2023-06-19T10:20:25;21.00;80.40
11426;DHT22;5769;47.998;7.788;2023-06-19T10:22:58;21.00;80.30
11426;DHT22;5769;47.998;7.788;2023-06-19T10:25:28;21.10;80.50
11426;DHT22;5769;47.998;7.788;2023-06-19T10:27:55;21.10;80.40
11426;DHT22;5769;47.998;7.788;2023-06-19T10:30:22;21.10;80.40
11426;DHT22;5769;47.998;7.788;2023-06-19T10:32:49;21.10;80.40
11426;DHT22;5769;47.998;7.788;2023-06-19T10:35:19;21.10;80.40
11426;DHT22;5769;47.998;7.788;2023-06-19T10:37:48;21.10;80.40
11426;DHT22;5769;47.998;7.788;2023-06-19T10:40:15;21.00;80.30
11426;DHT22;5769;47.998;7.788;2023-06-19T10:42:44;21.00;80.30
11426;DHT22;5769;47.998;7.788;2023-06-19T10:45:12;21.10;80.40
11426;DHT22;5769;47.998;7.788;2023-06-19T10:47:41;21.10;80.40
11426;DHT22;5769;47.998;7.788;2023-06-19T10:50:12;21.00;80.50
11426;DHT22;5769;47.998;7.788;2023-06-19T10:52:43;21.00;80.30
11426;DHT22;5769;47.998;7.788;2023-06-19T10:55:11;21.10;80.40
11426;DHT22;5769;47.998;7.788;2023-06-19T10:57:38;21.00;80.30
11426;DHT22;5769;47.998;7.788;2023-06-19T11:00:08;21.00;80.30
11426;DHT22;5769;47.998;7.788;2023-06-19T11:02:39;21.10;80.40
11426;DHT22;5769;47.998;7.788;2023-06-19T11:05:08;21.00;81.00
11426;DHT22;5769;47.998;7.788;2023-06-19T11:07:35;21.00;80.30
11426;DHT22;5769;47.998;7.788;2023-06-19T11:10:02;21.00;80.30
11426;DHT22;5769;47.998;7.788;2023-06-19T11:12:31;21.00;80.30
11426;DHT22;5769;47.998;7.788;2023-06-19T11:14:57;21.00;80.30
11426;DHT22;5769;47.998;7.788;2023-06-19T11:17:26;21.00;80.20
11426;DHT22;5769;47.998;7.788;2023-06-19T11:19:52;21.00;80.30
11426;DHT22;5769;47.998;7.788;2023-06-19T11:22:19;21.10;80.30
11426;DHT22;5769;47.998;7.788;2023-06-19T11:24:46;21.10;80.30
11426;DHT22;5769;47.998;7.788;2023-06-19T11:27:17;21.00;80.20
11426;DHT22;5769;47.998;7.788;2023-06-19T11:29:44;21.00;80.20
11426;DHT22;5769;47.998;7.788;2023-06-19T11:32:14;21.10;80.30
11426;DHT22;5769;47.998;7.788;2023-06-19T11:34:42;21.10;80.20
11426;DHT22;5769;47.998;7.788;2023-06-19T11:37:13;21.10;80.20
11426;DHT22;5769;47.998;7.788;2023-06-19T11:39:40;21.00;80.20
11426;DHT22;5769;47.998;7.788;2023-06-19T11:42:07;21.00;80.20
11426;DHT22;5769;47.998;7.788;2023-06-19T11:44:34;21.10;80.30
11426;DHT22;5769;47.998;7.788;2023-06-19T11:47:01;21.00;80.30
11426;DHT22;5769;47.998;7.788;2023-06-19T11:49:34;21.00;80.10
11426;DHT22;5769;47.998;7.788;2023-06-19T11:52:03;21.00;80.20
11426;DHT22;5769;47.998;7.788;2023-06-19T11:54:30;21.10;80.20
11426;DHT22;5769;47.998;7.788;2023-06-19T11:56:56;21.10;80.30
11426;DHT22;5769;47.998;7.788;2023-06-19T11:59:23;21.10;80.20
11426;DHT22;5769;47.998;7.788;2023-06-19T12:01:50;21.10;80.20
11426;DHT22;5769;47.998;7.788;2023-06-19T12:04:16;21.10;80.10
11426;DHT22;5769;47.998;7.788;2023-06-19T12:06:43;21.10;80.10
11426;DHT22;5769;47.998;7.788;2023-06-19T12:09:11;21.10;80.10
11426;DHT22;5769;47.998;7.788;2023-06-19T12:11:38;21.10;80.70
11426;DHT22;5769;47.998;7.788;2023-06-19T12:14:04;21.10;80.00
11426;DHT22;5769;47.998;7.788;2023-06-19T12:16:31;21.10;80.00
11426;DHT22;5769;47.998;7.788;2023-06-19T12:18:58;21.20;80.00
11426;DHT22;5769;47.998;7.788;2023-06-19T12:21:24;21.20;80.00
11426;DHT22;5769;47.998;7.788;2023-06-19T12:23:51;21.20;79.90
11426;DHT22;5769;47.998;7.788;2023-06-19T12:26:19;21.20;80.00
11426;DHT22;5769;47.998;7.788;2023-06-19T12:28:46;21.20;80.00
11426;DHT22;5769;47.998;7.788;2023-06-19T12:31:12;21.20;80.00
11426;DHT22;5769;47.998;7.788;2023-06-19T12:33:39;21.10;79.90
11426;DHT22;5769;47.998;7.788;2023-06-19T12:36:10;21.20;80.00
11426;DHT22;5769;47.998;7.788;2023-06-19T12:38:38;21.20;80.00
11426;DHT22;5769;47.998;7.788;2023-06-19T12:41:05;21.20;79.90
11426;DHT22;5769;47.998;7.788;2023-06-19T12:43:33;21.20;79.90
11426;DHT22;5769;47.998;7.788;2023-06-19T12:46:00;21.20;79.90
11426;DHT22;5769;47.998;7.788;2023-06-19T12:48:27;21.20;79.90
11426;DHT22;5769;47.998;7.788;2023-06-19T12:50:55;21.10;79.80
11426;DHT22;5769;47.998;7.788;2023-06-19T12:53:21;21.10;79.80
11426;DHT22;5769;47.998;7.788;2023-06-19T12:55:52;21.20;79.80
11426;DHT22;5769;47.998;7.788;2023-06-19T12:58:18;21.20;79.80
11426;DHT22;5769;47.998;7.788;2023-06-19T13:00:46;21.10;79.70
11426;DHT22;5769;47.998;7.788;2023-06-19T13:03:13;21.20;79.70
11426;DHT22;5769;47.998;7.788;2023-06-19T13:05:39;21.20;79.70
11426;DHT22;5769;47.998;7.788;2023-06-19T13:08:06;21.20;79.70
11426;DHT22;5769;47.998;7.788;2023-06-19T13:10:33;21.20;79.70
11426;DHT22;5769;47.998;7.788;2023-06-19T13:13:00;21.20;79.70
11426;DHT22;5769;47.998;7.788;2023-06-19T13:15:27;21.20;79.70
11426;DHT22;5769;47.998;7.788;2023-06-19T13:17:55;21.20;79.70
11426;DHT22;5769;47.998;7.788;2023-06-19T13:20:21;21.20;79.70
11426;DHT22;5769;47.998;7.788;2023-06-19T13:22:48;21.10;79.60
11426;DHT22;5769;47.998;7.788;2023-06-19T13:25:15;21.20;79.80
11426;DHT22;5769;47.998;7.788;2023-06-19T13:27:41;21.20;80.50
11426;DHT22;5769;47.998;7.788;2023-06-19T13:30:09;21.30;80.10
11426;DHT22;5769;47.998;7.788;2023-06-19T13:32:36;21.20;80.20
11426;DHT22;5769;47.998;7.788;2023-06-19T13:35:05;21.30;80.30
11426;DHT22;5769;47.998;7.788;2023-06-19T13:37:33;21.30;80.20
11426;DHT22;5769;47.998;7.788;2023-06-19T13:40:00;21.30;80.30
11426;DHT22;5769;47.998;7.788;2023-06-19T13:42:29;21.30;80.40
11426;DHT22;5769;47.998;7.788;2023-06-19T13:44:56;21.30;80.40
11426;DHT22;5769;47.998;7.788;2023-06-19T13:47:23;21.30;80.20
11426;DHT22;5769;47.998;7.788;2023-06-19T13:49:51;21.30;80.30
11426;DHT22;5769;47.998;7.788;2023-06-19T13:52:19;21.40;80.30
11426;DHT22;5769;47.998;7.788;2023-06-19T13:54:46;21.40;80.40
11426;DHT22;5769;47.998;7.788;2023-06-19T13:57:13;21.40;80.30
11426;DHT22;5769;47.998;7.788;2023-06-19T13:59:39;21.40;80.30
11426;DHT22;5769;47.998;7.788;2023-06-19T14:02:06;21.40;80.30
11426;DHT22;5769;47.998;7.788;2023-06-19T14:04:33;21.40;80.30
11426;DHT22;5769;47.998;7.788;2023-06-19T14:07:00;21.40;80.30
11426;DHT22;5769;47.998;7.788;2023-06-19T14:09:28;21.40;80.30
11426;DHT22;5769;47.998;7.788;2023-06-19T14:11:55;21.40;80.30
11426;DHT22;5769;47.998;7.788;2023-06-19T14:14:21;21.40;80.20
11426;DHT22;5769;47.998;7.788;2023-06-19T14:16:48;21.50;80.30
11426;DHT22;5769;47.998;7.788;2023-06-19T14:19:15;21.50;80.00
11426;DHT22;5769;47.998;7.788;2023-06-19T14:21:41;21.50;80.10
11426;DHT22;5769;47.998;7.788;2023-06-19T14:24:08;21.50;80.20
11426;DHT22;5769;47.998;7.788;2023-06-19T14:26:36;21.50;80.30
11426;DHT22;5769;47.998;7.788;2023-06-19T14:29:03;21.50;80.30
11426;DHT22;5769;47.998;7.788;2023-06-19T14:31:29;21.50;80.40
11426;DHT22;5769;47.998;7.788;2023-06-19T14:33:56;21.50;80.40
11426;DHT22;5769;47.998;7.788;2023-06-19T14:36:22;21.50;80.40
11426;DHT22;5769;47.998;7.788;2023-06-19T14:38:49;21.50;80.30
11426;DHT22;5769;47.998;7.788;2023-06-19T14:41:16;21.50;80.40
11426;DHT22;5769;47.998;7.788;2023-06-19T14:43:44;21.60;80.30
11426;DHT22;5769;47.998;7.788;2023-06-19T14:46:11;21.50;80.30
11426;DHT22;5769;47.998;7.788;2023-06-19T14:48:37;21.60;80.40
11426;DHT22;5769;47.998;7.788;2023-06-19T14:51:04;21.50;80.30
11426;DHT22;5769;47.998;7.788;2023-06-19T14:53:31;21.60;80.50
11426;DHT22;5769;47.998;7.788;2023-06-19T14:55:58;21.60;80.50
11426;DHT22;5769;47.998;7.788;2023-06-19T14:58:24;21.60;80.40
11426;DHT22;5769;47.998;7.788;2023-06-19T15:00:55;21.60;80.40
11426;DHT22;5769;47.998;7.788;2023-06-19T15:03:23;21.60;80.40
11426;DHT22;5769;47.998;7.788;2023-06-19T15:05:49;21.60;80.40
11426;DHT22;5769;47.998;7.788;2023-06-19T15:08:16;21.60;80.40
11426;DHT22;5769;47.998;7.788;2023-06-19T15:10:47;21.60;80.40
11426;DHT22;5769;47.998;7.788;2023-06-19T15:13:14;21.60;80.40
11426;DHT22;5769;47.998;7.788;2023-06-19T15:15:41;21.70;80.40
11426;DHT22;5769;47.998;7.788;2023-06-19T15:18:09;21.60;80.40
11426;DHT22;5769;47.998;7.788;2023-06-19T15:20:36;21.70;80.40
11426;DHT22;5769;47.998;7.788;2023-06-19T15:23:04;21.70;80.30
11426;DHT22;5769;47.998;7.788;2023-06-19T15:25:31;21.70;80.20
11426;DHT22;5769;47.998;7.788;2023-06-19T15:27:58;21.60;80.00
11426;DHT22;5769;47.998;7.788;2023-06-19T15:30:24;21.60;79.90
11426;DHT22;5769;47.998;7.788;2023-06-19T15:32:51;21.60;79.80
11426;DHT22;5769;47.998;7.788;2023-06-19T15:35:19;21.60;80.00
11426;DHT22;5769;47.998;7.788;2023-06-19T15:37:46;21.60;80.10
11426;DHT22;5769;47.998;7.788;2023-06-19T15:40:12;21.60;80.20
11426;DHT22;5769;47.998;7.788;2023-06-19T15:42:39;21.60;80.10
11426;DHT22;5769;47.998;7.788;2023-06-19T15:45:06;21.50;80.10
11426;DHT22;5769;47.998;7.788;2023-06-19T15:47:33;21.50;80.20